Terminal Aerodrome Forecast
Issued by NWS Topeka, KS

Home | Current Version | Previous Version | Graphics & Text | Print | Product List | Glossary On
Versions: 1 2 3 4 5 6 7 8 9 10 11 12 13 14 15 16 17 18 19
751
FTUS43 KTOP 151123
TAFTOP
TAF
KTOP 151123Z 1512/1612 28006KT P6SM FEW040
     FM151800 23011KT P6SM FEW250
     FM160000 20007KT P6SM FEW250=

USA.gov is the U.S. government's official web portal to all federal, state and local government web resources and services.